Ana Sayfa
METAR-TAF:

METAR-TAF

Havaalanları :

Wajima, Japonya

Enlem: 37-17-36N, Boylam: 136-57-44E, yükseklik: 219 m

Güncel hava durumu gözlemi

Rapor saat 08:00 UTC de 1 saat ve 20 dakika önce yapıldı.
Rüzgar batıdan 10 kt ve 20 kt'a kadar ani rüzgarlar, güneybatı ve kuzeybatı arasında değişken
Sıcaklık 24°C
Nem 61%
Basınç 1009 hPa
Görüş mesafesi 10 km veya daha fazla
3000 ft yükseklikte az bulutlu
5000 ft yükseklikte parçalı bulutlu
parçalı çok bulutlu

METAR: RJNW 250800Z 27010G20KT 230V310 9999 FEW030 SCT050 BKN/// 24/16 Q1009

Saat: 18:20 (09:20 UTC)


TAF: eksik

4.000'den fazla havaalanı için hava durumu gözlemleri ve tahminleri (METAR ve TAF raporları).

Kullanılabilir istasyonlar harita üzerinde sarı ve kırmızı noktalarla gösterilir.

İstasyonun adını görmek için fareyi noktanın üzerinde gezdirin.

Sonrasında hava gözlem ve tahminlerini görmek için tıklayın.

Haritayı değiştirmek için: yaklaştırmak için siyah artı işaretli yeşil düğmeye ve uzaklaştırmak için de eksi işaretli düğmeye hızla tıklayın; bitişik haritalar için yeşil okları kullanın.


METAR-TAF: